Time;durP1;ratioP1;P1;durP2;ratioP2;P2;SDS_P1;SDS_P2;PMS_P1;PMS_P2;Temp;Humidity;BMP_temperature;BMP_pressure;BME280_temperature;BME280_humidity;BME280_pressure;Samples;Min_cycle;Max_cycle;Signal;HPM_P1;HPM_P2
2021/12/10 00:00:26;;;;;;;3.95;2.78;;;;;;;3.13;96.18;99670.78;5052753;28;20117;-74
2021/12/10 00:02:53;;;;;;;8.30;3.03;;;;;;;3.03;95.64;99667.13;5054866;28;20132;-74
2021/12/10 00:05:23;;;;;;;12.52;3.75;;;;;;;3.02;96.51;99660.25;5058731;28;20048;-75
2021/12/10 00:07:50;;;;;;;9.80;2.92;;;;;;;2.94;96.17;99665.13;5061287;28;20045;-72
2021/12/10 00:10:21;;;;;;;4.88;3.20;;;;;;;2.82;96.25;99658.16;5057312;28;20132;-73
2021/12/10 00:12:51;;;;;;;6.47;2.15;;;;;;;2.76;96.95;99648.16;5049907;28;20118;-75
2021/12/10 00:15:19;;;;;;;5.68;3.78;;;;;;;2.89;96.51;99641.25;5058074;28;20052;-75
2021/12/10 00:17:49;;;;;;;8.18;3.33;;;;;;;2.90;96.61;99635.16;5061952;28;20132;-73
2021/12/10 00:20:16;;;;;;;2.45;1.77;;;;;;;2.80;96.71;99642.69;5068424;28;20044;-73
2021/12/10 00:22:50;;;;;;;9.48;3.17;;;;;;;2.71;96.80;99639.84;5067033;28;20068;-73
2021/12/10 00:25:20;;;;;;;2.67;1.95;;;;;;;2.84;96.77;99645.91;5062184;28;20047;-74
2021/12/10 00:27:49;;;;;;;6.95;2.53;;;;;;;3.02;96.15;99645.56;5069813;28;20112;-73
2021/12/10 00:30:19;;;;;;;3.72;2.88;;;;;;;3.11;95.16;99628.53;5071559;28;20049;-74
2021/12/10 00:32:58;;;;;;;6.57;2.22;;;;;;;3.10;95.44;99627.72;5079927;28;20067;-75
2021/12/10 00:35:27;;;;;;;5.32;2.88;;;;;;;3.06;95.33;99612.44;5072836;28;20381;-73
2021/12/10 00:37:54;;;;;;;4.78;2.90;;;;;;;3.10;94.79;99603.50;5077054;28;20048;-73
2021/12/10 00:40:23;;;;;;;10.10;3.20;;;;;;;3.07;94.36;99595.97;5092027;28;20039;-74
2021/12/10 00:42:50;;;;;;;3.08;1.42;;;;;;;3.02;94.51;99598.00;5064109;28;20071;-74
2021/12/10 00:45:18;;;;;;;4.60;1.90;;;;;;;3.03;93.96;99589.31;5075034;28;20406;-75
2021/12/10 00:47:45;;;;;;;2.88;2.17;;;;;;;3.00;93.76;99586.91;5074414;28;20064;-75
2021/12/10 00:50:16;;;;;;;5.22;3.15;;;;;;;2.94;94.43;99589.91;5075665;28;20055;-74
2021/12/10 00:52:43;;;;;;;2.28;1.63;;;;;;;3.11;93.32;99577.50;5057422;28;20048;-75
2021/12/10 00:55:11;;;;;;;1.50;1.00;;;;;;;3.17;92.49;99577.88;5079626;28;20058;-74
2021/12/10 00:57:37;;;;;;;1.48;1.23;;;;;;;3.26;91.91;99568.66;5058634;28;20048;-72
2021/12/10 01:00:05;;;;;;;8.18;2.78;;;;;;;3.23;91.72;99561.06;5076429;28;20067;-72
2021/12/10 01:02:32;;;;;;;3.70;1.75;;;;;;;3.22;92.03;99559.41;5067305;28;20048;-75
2021/12/10 01:05:00;;;;;;;8.45;1.98;;;;;;;3.11;91.95;99551.56;5051209;28;20189;-72
2021/12/10 01:07:31;;;;;;;3.05;1.85;;;;;;;3.10;92.21;99541.25;5072291;28;20561;-73
2021/12/10 01:10:01;;;;;;;3.53;2.55;;;;;;;3.13;91.85;99533.28;5078521;28;20052;-73
2021/12/10 01:12:31;;;;;;;3.60;1.90;;;;;;;3.14;91.43;99530.56;5076403;28;20036;-72
2021/12/10 01:15:36;;;;;;;1.60;1.30;;;;;;;3.08;92.01;99528.41;5078020;28;20040;-73
2021/12/10 01:23:56;;;;;;;6.75;2.35;;;;;;;3.18;90.34;99517.28;5049509;28;20556;-74
2021/12/10 01:26:50;;;;;;;1.75;0.90;;;;;;;3.01;90.92;99513.34;5075283;28;20048;-73
2021/12/10 01:29:20;;;;;;;12.57;1.63;;;;;;;3.11;90.94;99507.44;5050595;28;20052;-74
2021/12/10 01:31:53;;;;;;;1.30;1.20;;;;;;;3.19;90.00;99505.97;5051628;28;20084;-74
2021/12/10 01:34:20;;;;;;;2.33;1.38;;;;;;;3.17;90.17;99494.84;5053344;28;20041;-72
2021/12/10 01:36:47;;;;;;;2.72;1.58;;;;;;;3.16;89.32;99491.56;5060991;28;20033;-74
2021/12/10 01:39:18;;;;;;;1.52;1.00;;;;;;;3.07;90.48;99490.41;5069703;28;20629;-75
2021/12/10 01:41:53;;;;;;;1.67;1.38;;;;;;;3.00;90.44;99477.97;5058791;28;20074;-73
2021/12/10 01:44:27;;;;;;;0.98;0.88;;;;;;;2.92;90.78;99469.88;5073576;28;20113;-74
2021/12/10 01:46:55;;;;;;;1.58;1.23;;;;;;;3.02;90.96;99469.16;5074457;28;20048;-74
2021/12/10 01:49:21;;;;;;;3.15;1.52;;;;;;;3.02;91.26;99463.13;5049490;28;20127;-74
2021/12/10 01:51:48;;;;;;;3.13;1.65;;;;;;;2.92;91.33;99456.91;5055194;28;20127;-72
2021/12/10 01:54:21;;;;;;;6.55;1.98;;;;;;;2.90;92.00;99462.22;5081765;28;20044;-72
2021/12/10 01:56:55;;;;;;;30.60;2.30;;;;;;;2.75;91.89;99454.66;5076692;28;20109;-73
2021/12/10 01:59:23;;;;;;;7.80;1.55;;;;;;;2.63;92.65;99445.09;5045545;28;20053;-72
2021/12/10 02:01:53;;;;;;;2.50;1.48;;;;;;;2.49;93.11;99440.03;5076679;28;20151;-73
2021/12/10 02:04:23;;;;;;;2.50;1.88;;;;;;;2.55;93.51;99432.66;5079292;28;20059;-73
2021/12/10 02:06:50;;;;;;;2.03;1.15;;;;;;;2.58;93.29;99429.03;5078046;28;20040;-73
2021/12/10 02:09:22;;;;;;;4.80;1.63;;;;;;;2.59;93.11;99428.09;5076802;28;20040;-73
2021/12/10 02:11:48;;;;;;;4.82;2.03;;;;;;;2.51;93.45;99425.19;5053280;28;20131;-72
2021/12/10 02:14:16;;;;;;;4.07;1.33;;;;;;;2.38;93.45;99423.53;5047252;28;20048;-73
2021/12/10 02:16:43;;;;;;;3.05;0.90;;;;;;;2.39;93.83;99410.47;5070523;28;20508;-73
2021/12/10 02:19:12;;;;;;;3.95;2.00;;;;;;;2.48;93.50;99415.03;5079639;28;20056;-74
2021/12/10 02:21:44;;;;;;;2.30;1.27;;;;;;;2.42;93.57;99416.28;5066928;28;20049;-73
2021/12/10 02:24:12;;;;;;;1.33;1.23;;;;;;;2.48;93.71;99409.84;5084862;28;20056;-73
2021/12/10 02:26:43;;;;;;;2.10;1.48;;;;;;;2.51;92.83;99400.13;5083421;28;20079;-72
2021/12/10 02:29:10;;;;;;;3.45;2.00;;;;;;;2.47;92.69;99393.47;5062491;28;20573;-73
2021/12/10 02:31:37;;;;;;;2.33;1.33;;;;;;;2.46;92.16;99384.03;5075707;28;20123;-73
2021/12/10 02:34:05;;;;;;;1.63;1.30;;;;;;;2.49;92.60;99380.44;5073338;28;20067;-74
2021/12/10 02:36:32;;;;;;;19.25;1.60;;;;;;;2.43;92.62;99376.47;5068006;28;20050;-73
2021/12/10 02:39:00;;;;;;;6.18;1.65;;;;;;;2.44;92.58;99372.97;5050403;28;20047;-75
2021/12/10 02:41:29;;;;;;;1.08;1.00;;;;;;;2.48;92.31;99371.00;5040885;28;20045;-72
2021/12/10 02:43:57;;;;;;;11.05;2.35;;;;;;;2.45;92.45;99368.59;5057778;28;20040;-75
2021/12/10 02:46:24;;;;;;;2.42;1.38;;;;;;;2.36;92.42;99363.22;5071464;28;20098;-73
2021/12/10 02:48:51;;;;;;;1.35;1.13;;;;;;;2.28;92.70;99361.13;5068507;28;20040;-75
2021/12/10 02:51:18;;;;;;;1.55;1.20;;;;;;;2.37;92.70;99359.69;5075899;28;20046;-73
2021/12/10 02:53:45;;;;;;;1.55;1.45;;;;;;;2.36;93.39;99358.03;5073539;28;20044;-73
2021/12/10 02:56:19;;;;;;;1.45;0.95;;;;;;;2.29;92.90;99352.44;5061203;28;20048;-73
2021/12/10 02:58:49;;;;;;;2.35;1.77;;;;;;;2.34;92.72;99350.34;5068401;28;20119;-73
2021/12/10 03:01:20;;;;;;;5.07;1.10;;;;;;;2.21;92.85;99339.16;5071977;28;20476;-74
2021/12/10 03:03:46;;;;;;;7.43;1.48;;;;;;;2.32;92.71;99336.69;5066134;28;20044;-76
2021/12/10 03:06:16;;;;;;;2.03;1.23;;;;;;;2.33;92.88;99327.97;5052454;28;20041;-74
2021/12/10 03:08:45;;;;;;;3.67;1.35;;;;;;;2.30;92.25;99317.00;5075008;28;20032;-74
2021/12/10 03:11:14;;;;;;;1.50;0.98;;;;;;;2.21;92.64;99297.72;5053619;28;20036;-73
2021/12/10 03:13:42;;;;;;;1.55;0.82;;;;;;;2.19;93.15;99297.00;5072897;28;20040;-74
2021/12/10 03:16:09;;;;;;;0.73;0.52;;;;;;;2.28;92.74;99298.94;5075470;28;20050;-72
2021/12/10 03:18:37;;;;;;;1.08;0.80;;;;;;;2.29;92.65;99300.63;5076963;28;20047;-73
2021/12/10 03:21:09;;;;;;;4.18;1.38;;;;;;;2.20;92.54;99290.88;5074259;28;20047;-73
2021/12/10 03:23:37;;;;;;;1.17;0.60;;;;;;;2.24;92.70;99287.16;5075596;28;20044;-74
2021/12/10 03:26:04;;;;;;;6.57;1.05;;;;;;;2.40;92.01;99292.94;5055154;28;20105;-73
2021/12/10 03:28:32;;;;;;;3.88;1.13;;;;;;;2.43;91.81;99287.53;5028178;28;20052;-73
2021/12/10 03:30:59;;;;;;;0.82;0.70;;;;;;;2.54;91.05;99277.25;5032164;28;20129;-74
2021/12/10 03:33:26;;;;;;;2.72;0.65;;;;;;;2.58;91.18;99276.13;5043395;28;20059;-73
2021/12/10 03:35:52;;;;;;;1.85;1.42;;;;;;;2.52;90.61;99264.41;5057464;28;20051;-74
2021/12/10 03:38:22;;;;;;;0.68;0.60;;;;;;;2.62;90.49;99267.19;5056059;28;20055;-73
2021/12/10 03:40:49;;;;;;;1.88;1.45;;;;;;;2.71;89.92;99256.16;5053745;28;20044;-75
2021/12/10 03:43:17;;;;;;;1.05;0.75;;;;;;;2.81;89.45;99254.59;5054098;28;20048;-73
2021/12/10 03:45:47;;;;;;;0.35;0.35;;;;;;;2.89;89.48;99247.09;5033989;28;20045;-74
2021/12/10 03:48:16;;;;;;;1.63;0.85;;;;;;;2.91;88.69;99247.81;5036931;28;20043;-73
2021/12/10 03:50:45;;;;;;;1.80;1.35;;;;;;;2.84;89.06;99237.03;5047730;28;20044;-73
2021/12/10 03:53:12;;;;;;;8.90;1.00;;;;;;;2.78;89.30;99241.81;5035511;28;20438;-73
2021/12/10 03:55:39;;;;;;;0.77;0.50;;;;;;;2.85;88.97;99230.06;5061877;28;20616;-72
2021/12/10 03:58:06;;;;;;;1.23;0.65;;;;;;;2.80;89.38;99234.78;5052934;28;20044;-75
2021/12/10 04:00:37;;;;;;;0.60;0.43;;;;;;;2.70;90.08;99233.78;5050933;28;20041;-72
2021/12/10 04:03:07;;;;;;;5.47;0.82;;;;;;;2.66;89.74;99221.97;5047797;28;20060;-74
2021/12/10 04:05:34;;;;;;;1.63;1.27;;;;;;;2.68;89.95;99217.50;5030663;28;20174;-74
2021/12/10 04:08:00;;;;;;;1.33;0.90;;;;;;;2.66;89.98;99212.44;5050917;28;20049;-74
2021/12/10 04:10:29;;;;;;;0.60;0.50;;;;;;;2.66;90.48;99206.44;5063621;28;20046;-73
2021/12/10 04:12:56;;;;;;;3.50;1.65;;;;;;;2.69;90.16;99198.41;5061479;28;20045;-72
2021/12/10 04:15:23;;;;;;;1.20;0.90;;;;;;;2.81;89.26;99197.53;5050078;28;20063;-74
2021/12/10 04:17:50;;;;;;;1.13;0.98;;;;;;;2.85;89.24;99199.81;5054885;28;20044;-72
2021/12/10 04:20:20;;;;;;;0.50;0.43;;;;;;;2.89;89.15;99192.63;5024525;28;20082;-73
2021/12/10 04:22:52;;;;;;;2.05;1.00;;;;;;;2.83;89.44;99193.91;5040312;28;20040;-71
2021/12/10 04:25:24;;;;;;;2.78;0.85;;;;;;;2.81;89.55;99180.22;5036643;28;20826;-74
2021/12/10 04:27:55;;;;;;;1.02;0.80;;;;;;;2.77;89.64;99188.31;5057380;28;20098;-73
2021/12/10 04:30:22;;;;;;;0.55;0.50;;;;;;;2.80;89.03;99180.31;5038076;28;20060;-73
2021/12/10 04:32:49;;;;;;;16.63;1.15;;;;;;;2.88;89.15;99173.63;5051727;28;20446;-72
2021/12/10 04:35:18;;;;;;;3.33;1.35;;;;;;;2.83;88.87;99167.97;5063657;28;20059;-73
2021/12/10 04:37:47;;;;;;;1.88;1.15;;;;;;;2.79;89.43;99163.13;5045417;28;20048;-73
2021/12/10 04:40:21;;;;;;;0.55;0.55;;;;;;;2.71;89.51;99162.84;5043154;28;20037;-74
2021/12/10 04:42:48;;;;;;;0.60;0.47;;;;;;;2.81;89.67;99161.25;5064703;28;20050;-73
2021/12/10 04:45:16;;;;;;;5.45;1.40;;;;;;;2.76;89.11;99158.13;5042565;28;20076;-73
2021/12/10 04:47:44;;;;;;;1.75;1.08;;;;;;;2.72;89.47;99156.72;5062653;28;20071;-74
2021/12/10 04:50:12;;;;;;;0.50;0.40;;;;;;;2.61;89.56;99143.69;5057470;28;20119;-74
2021/12/10 04:52:39;;;;;;;3.30;1.08;;;;;;;2.68;90.04;99142.31;5069772;28;20094;-74
2021/12/10 04:55:11;;;;;;;1.17;0.68;;;;;;;2.57;90.21;99142.28;5057309;28;20037;-73
2021/12/10 04:57:38;;;;;;;1.15;0.60;;;;;;;2.64;89.80;99133.13;5079473;28;20047;-73
2021/12/10 05:00:07;;;;;;;1.38;1.08;;;;;;;2.56;90.00;99127.66;5065836;28;20105;-74
2021/12/10 05:02:35;;;;;;;0.60;0.60;;;;;;;2.55;90.04;99126.00;5063323;28;20041;-72
2021/12/10 05:05:02;;;;;;;8.85;2.55;;;;;;;2.62;89.53;99116.84;5060748;28;20062;-73
2021/12/10 05:07:32;;;;;;;3.40;0.57;;;;;;;2.70;89.29;99109.34;5042671;28;20126;-75
2021/12/10 05:09:59;;;;;;;2.90;1.90;;;;;;;2.67;89.32;99109.56;5034515;28;20063;-73
2021/12/10 05:12:27;;;;;;;3.92;1.27;;;;;;;2.64;89.53;99095.06;5054490;28;20051;-73
2021/12/10 05:14:59;;;;;;;3.83;1.58;;;;;;;2.66;89.39;99102.75;5056389;28;20040;-72
2021/12/10 05:17:29;;;;;;;0.50;0.40;;;;;;;2.61;89.82;99102.22;5038704;28;20387;-73
2021/12/10 05:19:59;;;;;;;3.40;1.75;;;;;;;2.49;90.07;99097.97;5038376;28;20064;-73
2021/12/10 05:22:27;;;;;;;0.80;0.60;;;;;;;2.54;90.06;99095.84;5038896;28;20082;-73
2021/12/10 05:24:53;;;;;;;3.88;1.40;;;;;;;2.58;90.03;99090.31;5050756;28;20048;-72
2021/12/10 05:27:20;;;;;;;2.80;0.77;;;;;;;2.59;90.00;99086.81;5065673;28;20047;-74
2021/12/10 05:29:48;;;;;;;0.93;0.63;;;;;;;2.70;89.31;99083.41;5075481;28;20036;-76
2021/12/10 05:32:17;;;;;;;9.43;1.05;;;;;;;2.68;89.60;99077.50;5097071;28;20032;-73
2021/12/10 05:34:44;;;;;;;1.00;0.60;;;;;;;2.67;89.55;99073.25;5080444;28;20055;-73
2021/12/10 05:37:12;;;;;;;1.50;0.68;;;;;;;2.66;89.46;99066.44;5081340;28;20051;-71
2021/12/10 05:39:38;;;;;;;9.48;1.08;;;;;;;2.63;90.13;99061.47;5096287;27;20043;-74
2021/12/10 05:42:06;;;;;;;3.25;1.38;;;;;;;2.66;89.74;99056.91;5080257;28;20043;-73
2021/12/10 05:44:33;;;;;;;16.67;0.73;;;;;;;2.64;90.00;99042.41;5077181;28;20498;-71
2021/12/10 05:47:01;;;;;;;1.95;0.77;;;;;;;2.69;89.69;99048.06;5099639;28;20047;-72
2021/12/10 05:49:28;;;;;;;18.42;1.25;;;;;;;2.64;90.21;99050.19;5076859;28;20040;-72
2021/12/10 05:51:55;;;;;;;1.88;0.90;;;;;;;2.72;89.55;99037.47;5092255;28;20043;-73
2021/12/10 05:54:22;;;;;;;0.88;0.70;;;;;;;2.81;88.94;99035.00;5093824;28;20050;-72
2021/12/10 05:56:49;;;;;;;1.58;0.90;;;;;;;2.82;89.42;99030.69;5077322;28;20710;-70
2021/12/10 05:59:15;;;;;;;10.10;1.10;;;;;;;2.87;88.87;99024.22;5097167;27;20146;-74
2021/12/10 06:01:42;;;;;;;0.40;0.28;;;;;;;2.92;88.98;99032.47;5077617;27;20763;-74
2021/12/10 06:04:11;;;;;;;1.13;0.55;;;;;;;3.02;88.42;99019.59;5097910;27;20063;-74
2021/12/10 06:06:38;;;;;;;0.47;0.47;;;;;;;3.11;88.06;99021.50;5078877;28;20100;-73
2021/12/10 06:09:07;;;;;;;3.83;0.65;;;;;;;3.11;87.88;99013.72;5096879;28;20045;-70
2021/12/10 06:11:35;;;;;;;2.38;1.75;;;;;;;3.14;87.82;99013.50;5097133;27;20051;-70
2021/12/10 06:14:01;;;;;;;4.68;2.15;;;;;;;3.13;87.93;99006.66;5097277;28;20039;-69
2021/12/10 06:16:28;;;;;;;5.03;1.63;;;;;;;3.13;87.85;99015.25;5077655;28;20062;-71
2021/12/10 06:18:56;;;;;;;1.05;0.45;;;;;;;3.15;88.13;99007.38;5098402;28;20054;-70
2021/12/10 06:21:24;;;;;;;2.28;0.80;;;;;;;3.19;88.02;99000.06;5097480;28;20096;-69
2021/12/10 06:23:51;;;;;;;0.30;0.28;;;;;;;3.12;88.21;98994.63;5098160;28;20122;-72
2021/12/10 06:26:18;;;;;;;0.65;0.50;;;;;;;3.21;87.74;99000.78;5095642;27;20067;-74
2021/12/10 06:28:45;;;;;;;1.60;0.50;;;;;;;3.24;87.66;98992.72;5097992;27;20046;-70
2021/12/10 06:31:13;;;;;;;0.40;0.40;;;;;;;3.31;87.38;98993.94;5091158;27;20040;-72
2021/12/10 06:33:40;;;;;;;1.30;0.85;;;;;;;3.35;87.16;98984.97;5096421;28;20043;-73
2021/12/10 06:36:07;;;;;;;1.48;1.17;;;;;;;3.35;87.23;98977.16;5098860;27;20051;-73
2021/12/10 06:38:36;;;;;;;3.72;1.08;;;;;;;3.37;87.03;98993.44;5098625;28;20059;-72
2021/12/10 06:41:04;;;;;;;2.10;0.85;;;;;;;3.44;87.09;98984.25;5082263;28;20066;-73
2021/12/10 06:43:30;;;;;;;1.20;0.82;;;;;;;3.46;86.47;98981.50;5099414;28;20042;-73
2021/12/10 06:45:57;;;;;;;2.78;1.17;;;;;;;3.51;86.60;98990.59;5098384;27;20122;-73
2021/12/10 06:48:25;;;;;;;1.08;0.77;;;;;;;3.56;85.72;98983.28;5097348;27;20075;-72
2021/12/10 06:50:55;;;;;;;6.95;1.52;;;;;;;3.54;85.83;98973.97;5083306;28;20380;-74
2021/12/10 06:53:23;;;;;;;2.15;0.90;;;;;;;3.58;85.48;98972.78;5115670;28;20062;-72
2021/12/10 06:55:51;;;;;;;3.92;0.63;;;;;;;3.54;86.14;98969.59;5098352;28;20051;-73
2021/12/10 06:58:19;;;;;;;0.70;0.52;;;;;;;3.57;85.84;98969.34;5102905;28;20059;-72
2021/12/10 07:00:49;;;;;;;2.45;1.70;;;;;;;3.58;85.32;98965.81;5081720;28;20039;-73
2021/12/10 07:03:18;;;;;;;0.60;0.40;;;;;;;3.60;85.24;98963.91;5099294;28;20122;-72
2021/12/10 07:05:45;;;;;;;2.10;0.57;;;;;;;3.61;85.29;98962.16;5101749;27;20075;-74
2021/12/10 07:08:13;;;;;;;3.10;0.88;;;;;;;3.57;85.54;98964.16;5099557;28;20071;-73
2021/12/10 07:10:40;;;;;;;1.85;1.05;;;;;;;3.55;85.61;98958.28;5079213;28;20051;-73
2021/12/10 07:13:13;;;;;;;3.58;1.75;;;;;;;3.57;85.44;98963.34;5098861;28;20043;-71
2021/12/10 07:15:43;;;;;;;0.85;0.70;;;;;;;3.62;84.81;98966.38;5095819;28;20047;-73
2021/12/10 07:18:09;;;;;;;0.70;0.47;;;;;;;3.61;85.09;98970.78;5097566;28;20039;-73
2021/12/10 07:20:39;;;;;;;3.30;1.80;;;;;;;3.60;84.85;98963.91;5097268;27;20050;-73
2021/12/10 07:23:06;;;;;;;8.98;1.02;;;;;;;3.60;84.60;98968.31;5100301;28;20040;-73
2021/12/10 07:25:33;;;;;;;2.05;1.20;;;;;;;3.66;84.81;98965.22;5101919;28;20100;-75
2021/12/10 07:27:59;;;;;;;1.88;0.82;;;;;;;3.68;85.14;98969.34;5098453;28;20054;-73
2021/12/10 07:30:29;;;;;;;1.20;0.90;;;;;;;3.70;84.65;98970.03;5081921;28;20104;-72
2021/12/10 07:32:56;;;;;;;1.52;1.27;;;;;;;3.70;84.79;98966.59;5106926;28;20044;-74
2021/12/10 07:35:23;;;;;;;3.60;0.55;;;;;;;3.77;84.42;98968.59;5099378;28;20044;-71
2021/12/10 07:37:50;;;;;;;1.52;1.08;;;;;;;3.72;84.47;98962.97;5106496;28;20046;-71
2021/12/10 07:40:21;;;;;;;1.33;0.93;;;;;;;3.76;84.41;98959.16;5113604;28;20043;-74
2021/12/10 07:42:48;;;;;;;1.45;1.10;;;;;;;3.78;83.96;98972.84;5098589;28;20055;-73
2021/12/10 07:45:15;;;;;;;7.32;2.47;;;;;;;3.79;84.22;98963.28;5094083;28;20067;-75
2021/12/10 07:47:44;;;;;;;3.58;1.17;;;;;;;3.81;83.62;98956.19;5075509;28;20048;-73
2021/12/10 07:50:14;;;;;;;2.40;1.55;;;;;;;3.82;83.35;98963.84;5097748;28;20066;-72
2021/12/10 07:52:43;;;;;;;6.78;1.33;;;;;;;3.90;82.79;98945.06;5095125;28;20130;-73
2021/12/10 07:55:13;;;;;;;11.48;1.73;;;;;;;3.92;82.72;98935.41;5095776;28;20039;-73
2021/12/10 07:57:41;;;;;;;0.77;0.65;;;;;;;3.91;82.95;98944.94;5094420;28;20087;-73
2021/12/10 08:00:10;;;;;;;5.25;0.95;;;;;;;3.93;83.58;98945.66;5096030;28;20075;-72
2021/12/10 08:02:36;;;;;;;0.88;0.57;;;;;;;3.92;82.53;98953.59;5095284;28;20047;-73
2021/12/10 08:05:06;;;;;;;3.67;1.77;;;;;;;3.93;82.88;98953.44;5095326;28;20054;-72
2021/12/10 08:07:32;;;;;;;12.90;1.55;;;;;;;3.97;83.23;98957.47;5094442;28;20039;-73
2021/12/10 08:09:59;;;;;;;1.52;1.38;;;;;;;4.00;82.55;98957.19;5100152;27;20063;-73
2021/12/10 08:12:26;;;;;;;2.03;1.17;;;;;;;3.97;83.11;98965.25;5099709;28;20066;-73
2021/12/10 08:14:55;;;;;;;2.35;1.13;;;;;;;3.96;83.22;98961.81;5099279;27;20134;-73
2021/12/10 08:17:23;;;;;;;1.48;0.63;;;;;;;4.03;82.15;98956.97;5079531;28;20052;-74
2021/12/10 08:19:52;;;;;;;0.98;0.57;;;;;;;4.02;82.66;98956.13;5101219;28;20044;-71
2021/12/10 08:22:20;;;;;;;5.97;1.42;;;;;;;4.06;82.60;98956.72;5101749;27;20497;-75
2021/12/10 08:24:47;;;;;;;1.33;0.80;;;;;;;4.08;82.53;98962.59;5098666;28;20095;-73
2021/12/10 08:27:15;;;;;;;8.95;1.88;;;;;;;4.09;82.96;98956.47;5094161;27;20056;-72
2021/12/10 08:29:44;;;;;;;1.60;0.45;;;;;;;4.12;82.27;98948.44;5095947;28;20082;-74
2021/12/10 08:32:16;;;;;;;1.27;0.90;;;;;;;4.08;82.68;98960.84;5099921;28;20051;-74
2021/12/10 08:34:43;;;;;;;10.15;1.38;;;;;;;4.10;82.82;98952.91;5099303;28;20036;-72
2021/12/10 08:37:10;;;;;;;4.35;1.75;;;;;;;4.08;83.00;98944.41;5104238;27;20052;-72
2021/12/10 08:39:38;;;;;;;2.28;1.27;;;;;;;4.11;82.48;98952.78;5098422;28;20040;-73
2021/12/10 08:42:06;;;;;;;1.45;0.73;;;;;;;4.15;82.53;98955.94;5101230;27;20134;-71
2021/12/10 08:44:34;;;;;;;4.10;0.45;;;;;;;4.19;81.63;98945.19;5099795;28;20042;-72
2021/12/10 08:47:01;;;;;;;0.98;0.52;;;;;;;4.20;82.27;98935.63;5098495;27;20081;-72
2021/12/10 08:49:28;;;;;;;1.45;0.85;;;;;;;4.18;82.53;98937.53;5098113;28;20131;-73
2021/12/10 08:51:57;;;;;;;1.05;0.80;;;;;;;4.20;81.97;98933.03;5082069;28;20044;-71
2021/12/10 08:54:27;;;;;;;1.25;1.15;;;;;;;4.19;81.97;98936.56;5099245;28;20051;-73
2021/12/10 08:56:56;;;;;;;3.83;1.13;;;;;;;4.21;81.89;98951.09;5083297;27;20051;-72
2021/12/10 08:59:24;;;;;;;1.00;0.85;;;;;;;4.24;80.54;98944.81;5102962;28;20144;-74
2021/12/10 09:02:00;;;;;;;8.80;0.98;;;;;;;4.31;81.55;98940.78;5104698;27;20040;-72
2021/12/10 09:04:27;;;;;;;1.70;0.63;;;;;;;4.33;79.30;98949.25;5119145;28;20056;-71
2021/12/10 09:06:56;;;;;;;15.40;2.45;;;;;;;4.37;79.96;98950.66;5116817;27;20054;-72
2021/12/10 09:09:24;;;;;;;1.83;0.75;;;;;;;4.36;80.89;98955.03;5074850;28;20055;-72
2021/12/10 09:11:53;;;;;;;3.15;1.60;;;;;;;4.44;79.90;98957.81;5099758;28;20041;-73
2021/12/10 09:14:25;;;;;;;0.70;0.57;;;;;;;4.51;80.15;98959.00;5075128;28;20702;-74
2021/12/10 09:16:55;;;;;;;4.38;0.88;;;;;;;4.57;79.48;98968.03;5092062;27;20061;-73
2021/12/10 09:19:22;;;;;;;7.90;2.17;;;;;;;4.65;79.93;98973.41;5100051;27;20032;-74
2021/12/10 09:21:50;;;;;;;0.40;0.40;;;;;;;4.68;78.86;98970.56;5096774;28;20048;-74
2021/12/10 09:24:18;;;;;;;0.35;0.30;;;;;;;4.68;77.82;98980.97;5099791;27;20047;-74
2021/12/10 09:26:47;;;;;;;1.80;0.85;;;;;;;4.70;78.39;98974.69;5097249;27;20044;-74
2021/12/10 09:29:16;;;;;;;1.52;0.90;;;;;;;4.65;78.97;98976.84;5081936;27;20076;-73
2021/12/10 09:31:45;;;;;;;19.75;2.25;;;;;;;4.69;77.76;98987.81;5098253;28;20100;-73
2021/12/10 09:34:14;;;;;;;3.55;0.95;;;;;;;4.70;77.95;98973.88;5100292;27;20043;-73
2021/12/10 09:36:43;;;;;;;1.88;0.88;;;;;;;4.71;77.72;98989.34;5091121;28;20173;-73
2021/12/10 09:39:11;;;;;;;1.33;1.10;;;;;;;4.82;77.38;98984.91;5097849;27;20048;-73
2021/12/10 09:41:38;;;;;;;1.17;0.55;;;;;;;4.85;77.32;98984.66;5100876;28;20096;-73
2021/12/10 09:44:07;;;;;;;2.60;0.80;;;;;;;4.78;78.32;98977.47;5096790;27;20050;-73
2021/12/10 09:46:34;;;;;;;2.05;0.85;;;;;;;4.83;77.74;98980.53;5096913;28;20051;-74
2021/12/10 09:49:04;;;;;;;4.93;1.08;;;;;;;4.93;77.69;98976.19;5099306;27;20371;-72
2021/12/10 09:51:33;;;;;;;2.95;0.80;;;;;;;5.04;77.22;98978.72;5100042;27;20032;-73
2021/12/10 09:54:04;;;;;;;3.35;1.27;;;;;;;5.11;76.18;98970.28;5079957;27;20100;-74
2021/12/10 09:56:31;;;;;;;1.27;0.32;;;;;;;5.05;77.22;98978.59;5097911;28;20044;-74
2021/12/10 09:59:00;;;;;;;5.07;0.95;;;;;;;5.02;76.98;98973.66;5119676;27;20055;-72
2021/12/10 10:01:30;;;;;;;1.42;0.90;;;;;;;5.00;77.50;98972.94;5098227;28;20047;-72
2021/12/10 10:04:00;;;;;;;3.20;1.00;;;;;;;5.00;76.60;98962.53;5098505;27;20085;-74
2021/12/10 10:06:29;;;;;;;0.63;0.50;;;;;;;5.07;77.54;98968.88;5080920;28;20047;-75
2021/12/10 10:08:55;;;;;;;6.63;1.27;;;;;;;4.93;76.98;98966.63;5120828;27;20038;-74
2021/12/10 10:11:25;;;;;;;9.75;1.08;;;;;;;4.93;77.20;98961.41;5111661;27;20093;-73
2021/12/10 10:13:54;;;;;;;18.85;1.52;;;;;;;5.07;77.53;98961.06;5118647;27;20051;-71
2021/12/10 10:16:23;;;;;;;0.73;0.63;;;;;;;5.15;76.36;98953.44;5094950;28;20044;-74
2021/12/10 10:18:52;;;;;;;2.13;1.40;;;;;;;5.09;76.30;98960.97;5086174;28;20410;-73
2021/12/10 10:21:26;;;;;;;2.28;0.85;;;;;;;5.11;75.79;98948.63;5098322;28;20043;-74
2021/12/10 10:23:54;;;;;;;0.55;0.43;;;;;;;5.12;75.84;98953.72;5102014;27;20056;-73
2021/12/10 10:26:25;;;;;;;0.82;0.55;;;;;;;5.17;75.65;98958.53;5080902;28;20079;-74
2021/12/10 10:28:52;;;;;;;0.80;0.47;;;;;;;5.18;75.74;98950.56;5099699;27;20062;-74
2021/12/10 10:31:23;;;;;;;1.85;1.17;;;;;;;5.16;75.12;98952.47;5095627;28;20082;-73
2021/12/10 10:33:54;;;;;;;3.13;1.60;;;;;;;5.27;76.33;98947.19;5096588;27;20047;-75
2021/12/10 10:36:26;;;;;;;0.85;0.57;;;;;;;5.15;75.12;98950.00;5078496;28;20047;-74
2021/12/10 10:38:57;;;;;;;3.80;1.40;;;;;;;5.30;75.72;98944.31;5110185;27;20143;-73
2021/12/10 10:41:27;;;;;;;1.35;0.75;;;;;;;5.19;74.11;98948.78;5085698;28;20483;-73
2021/12/10 10:43:54;;;;;;;2.28;0.85;;;;;;;5.20;74.96;98937.41;5099796;27;20051;-73
2021/12/10 10:46:21;;;;;;;1.10;0.80;;;;;;;5.17;74.74;98945.50;5093991;28;20078;-73
2021/12/10 10:48:50;;;;;;;2.92;0.90;;;;;;;5.08;75.33;98947.09;5098675;27;20049;-73
2021/12/10 10:51:19;;;;;;;3.30;0.65;;;;;;;5.17;75.21;98954.13;5099092;28;20132;-71
2021/12/10 10:53:48;;;;;;;2.17;0.80;;;;;;;5.20;74.44;98951.28;5098575;28;20489;-72
2021/12/10 10:56:18;;;;;;;2.90;1.30;;;;;;;5.35;74.32;98949.97;5081961;28;20101;-73
2021/12/10 10:58:49;;;;;;;1.42;1.23;;;;;;;5.38;73.80;98946.25;5099669;27;20126;-72
2021/12/10 11:01:23;;;;;;;1.25;0.65;;;;;;;5.32;73.77;98941.59;5097317;27;20048;-72
2021/12/10 11:03:53;;;;;;;1.40;0.88;;;;;;;5.31;74.30;98955.56;5098275;27;20043;-72
2021/12/10 11:06:26;;;;;;;0.50;0.43;;;;;;;5.29;73.98;98947.06;5081860;28;20655;-73
2021/12/10 11:08:56;;;;;;;2.30;1.45;;;;;;;5.22;74.53;98953.75;5098695;28;20051;-72
2021/12/10 11:11:26;;;;;;;0.90;0.75;;;;;;;5.20;73.52;98953.88;5098854;28;20068;-74
2021/12/10 11:14:01;;;;;;;5.07;1.48;;;;;;;5.20;73.29;98959.09;5080299;28;20100;-71
2021/12/10 11:16:31;;;;;;;7.43;0.93;;;;;;;5.27;73.52;98960.22;5104927;27;20105;-71
2021/12/10 11:19:00;;;;;;;1.75;1.40;;;;;;;5.14;74.00;98954.38;5106288;28;20047;-72
2021/12/10 11:21:42;;;;;;;1.88;1.00;;;;;;;5.12;73.38;98958.06;5098503;28;20043;-72
2021/12/10 11:24:20;;;;;;;6.63;1.95;;;;;;;5.23;74.54;98964.00;5078888;28;20040;-72
2021/12/10 11:26:56;;;;;;;1.48;1.02;;;;;;;5.30;73.40;98962.53;5097126;28;20051;-73
2021/12/10 11:29:38;;;;;;;2.13;1.75;;;;;;;5.41;73.08;98956.41;5096717;28;20032;-72
2021/12/10 11:32:08;;;;;;;2.40;1.10;;;;;;;5.38;73.33;98957.47;5096071;28;20047;-73
2021/12/10 11:34:45;;;;;;;1.70;0.73;;;;;;;5.29;72.57;98953.09;5096177;28;20046;-73
2021/12/10 11:37:13;;;;;;;1.85;0.95;;;;;;;5.30;72.56;98962.53;5098220;28;20040;-73
2021/12/10 11:39:49;;;;;;;1.73;1.30;;;;;;;5.26;73.38;98968.13;5085930;28;20044;-72
2021/12/10 11:42:42;;;;;;;2.67;1.20;;;;;;;5.36;73.15;98976.81;5097081;28;20122;-73
2021/12/10 11:45:31;;;;;;;5.07;1.58;;;;;;;5.38;73.05;98964.47;5088415;27;20047;-73
2021/12/10 11:48:07;;;;;;;3.25;1.35;;;;;;;5.43;72.54;98968.34;5099289;28;20051;-72
2021/12/10 11:50:36;;;;;;;2.65;1.55;;;;;;;5.42;72.23;98978.91;5089901;28;20063;-73
2021/12/10 11:53:05;;;;;;;1.10;0.80;;;;;;;5.48;72.93;98971.38;5101558;28;20061;-72
2021/12/10 11:55:34;;;;;;;10.80;1.60;;;;;;;5.49;72.21;98978.22;5099677;28;20135;-72